createdAt,value
2019-04-04T00:00:03.683Z,0.00
2019-04-04T00:01:03.670Z,0.00
2019-04-04T00:02:03.656Z,0.00
2019-04-04T00:03:03.644Z,0.00
2019-04-04T00:04:03.628Z,0.00
2019-04-04T00:05:03.636Z,0.00
2019-04-04T00:06:03.608Z,0.00
2019-04-04T00:07:03.601Z,0.00
2019-04-04T00:08:03.583Z,0.00
2019-04-04T00:09:03.573Z,0.00
2019-04-04T00:10:04.060Z,0.00
2019-04-04T00:11:04.101Z,0.00
2019-04-04T00:12:03.539Z,0.00
2019-04-04T00:13:03.528Z,0.00
2019-04-04T00:14:03.526Z,0.00
2019-04-04T00:15:03.527Z,0.00
2019-04-04T00:16:03.495Z,0.00
2019-04-04T00:17:03.487Z,0.00
2019-04-04T00:18:03.501Z,0.00
2019-04-04T00:19:03.473Z,0.00
2019-04-04T00:20:03.488Z,0.00
2019-04-04T00:21:03.447Z,0.00
2019-04-04T00:22:04.920Z,0.00
2019-04-04T00:23:05.017Z,0.00
2019-04-04T00:24:03.413Z,0.00
2019-04-04T00:25:03.420Z,0.00
2019-04-04T00:26:03.395Z,0.00
2019-04-04T00:27:03.409Z,0.00
2019-04-04T00:28:03.364Z,0.00
2019-04-04T00:29:03.360Z,0.00
2019-04-04T00:30:03.366Z,0.00
2019-04-04T00:31:03.339Z,0.00
2019-04-04T00:32:03.326Z,0.00
2019-04-04T00:33:03.340Z,0.00
2019-04-04T00:34:03.299Z,0.00
2019-04-04T00:35:03.310Z,0.00
2019-04-04T00:36:03.438Z,0.00
2019-04-04T00:37:04.768Z,0.00
2019-04-04T00:38:03.299Z,0.00
2019-04-04T00:39:03.249Z,0.00
2019-04-04T00:40:03.283Z,0.00
2019-04-04T00:41:03.227Z,0.00
2019-04-04T00:42:03.232Z,0.00
2019-04-04T00:43:03.202Z,0.00
2019-04-04T00:44:03.225Z,0.00
2019-04-04T00:45:12.968Z,0.00
2019-04-04T00:46:03.170Z,0.00
2019-04-04T00:47:03.161Z,0.00
2019-04-04T00:48:03.699Z,0.00
2019-04-04T00:49:04.912Z,0.00
2019-04-04T00:50:06.140Z,0.00
2019-04-04T00:51:03.185Z,0.00
2019-04-04T00:52:03.104Z,0.00
2019-04-04T00:53:03.096Z,0.00
2019-04-04T00:54:03.106Z,0.00
2019-04-04T00:55:03.074Z,0.00
2019-04-04T00:56:03.088Z,0.00
2019-04-04T00:57:03.053Z,0.00
2019-04-04T00:58:03.046Z,0.00
2019-04-04T00:59:03.060Z,0.00
2019-04-04T01:00:03.019Z,0.00
2019-04-04T01:01:03.024Z,0.00
2019-04-04T01:02:02.999Z,0.00
2019-04-04T01:03:03.000Z,0.00
2019-04-04T01:04:02.981Z,0.00
2019-04-04T01:05:02.981Z,0.00
2019-04-04T01:06:03.655Z,0.00
2019-04-04T01:07:04.838Z,0.00
2019-04-04T01:08:02.931Z,0.00
2019-04-04T01:09:02.935Z,0.00
2019-04-04T01:10:02.914Z,0.00
2019-04-04T01:11:02.985Z,0.00
2019-04-04T01:12:02.891Z,0.00
2019-04-04T01:13:02.895Z,0.00
2019-04-04T01:14:02.926Z,0.00
2019-04-04T01:15:02.874Z,0.00
2019-04-04T01:16:03.408Z,0.00
2019-04-04T01:17:04.044Z,0.00
2019-04-04T01:18:04.075Z,0.00
2019-04-04T01:19:02.850Z,0.00
2019-04-04T01:20:02.816Z,0.00
2019-04-04T01:21:02.793Z,0.00
2019-04-04T01:22:02.805Z,0.00
2019-04-04T01:23:02.789Z,0.00
2019-04-04T01:24:02.786Z,0.00
2019-04-04T01:25:02.767Z,0.00
2019-04-04T01:26:03.426Z,0.00
2019-04-04T01:27:04.149Z,0.00
2019-04-04T01:28:02.719Z,0.00
2019-04-04T01:29:11.086Z,0.00
2019-04-04T01:30:12.594Z,0.00
2019-04-04T01:31:10.245Z,0.00
2019-04-04T01:32:11.550Z,0.00
2019-04-04T01:33:11.211Z,0.00
2019-04-04T01:34:11.468Z,0.00
2019-04-04T01:35:02.667Z,0.00
2019-04-04T01:36:02.633Z,0.00
2019-04-04T01:37:02.621Z,0.00
2019-04-04T01:38:02.635Z,0.00
2019-04-04T01:39:11.141Z,0.00
2019-04-04T01:40:10.129Z,0.00
2019-04-04T01:41:10.114Z,0.00
2019-04-04T01:42:10.102Z,0.00
2019-04-04T01:43:02.577Z,0.00
2019-04-04T01:44:05.173Z,0.00
2019-04-04T01:45:02.532Z,0.00
2019-04-04T01:46:02.524Z,0.00
2019-04-04T01:47:02.511Z,0.00
2019-04-04T01:48:11.244Z,0.00
2019-04-04T01:49:10.037Z,0.00
2019-04-04T01:50:10.013Z,0.00
2019-04-04T01:51:10.070Z,0.00
2019-04-04T01:52:10.002Z,0.00
2019-04-04T01:53:11.338Z,0.00
2019-04-04T01:54:09.983Z,0.00
2019-04-04T01:55:03.522Z,0.00
2019-04-04T01:56:05.919Z,0.00
2019-04-04T01:57:02.399Z,0.00
2019-04-04T01:58:02.407Z,0.00
2019-04-04T01:59:02.397Z,0.00
2019-04-04T02:00:02.377Z,0.00
2019-04-04T02:01:02.364Z,0.00
2019-04-04T02:02:02.349Z,0.00
2019-04-04T02:03:02.353Z,0.00
2019-04-04T02:04:02.327Z,0.00
2019-04-04T02:05:02.335Z,0.00
2019-04-04T02:06:02.305Z,0.00
2019-04-04T02:07:02.292Z,0.00
2019-04-04T02:08:02.298Z,0.00
2019-04-04T02:09:02.831Z,0.00
2019-04-04T02:10:03.203Z,0.00
2019-04-04T02:11:05.266Z,0.00
2019-04-04T02:12:02.242Z,0.00
2019-04-04T02:13:02.282Z,0.00
2019-04-04T02:14:02.271Z,0.00
2019-04-04T02:15:02.206Z,0.00
2019-04-04T02:16:02.191Z,0.00
2019-04-04T02:17:02.228Z,0.00
2019-04-04T02:18:02.191Z,0.00
2019-04-04T02:19:02.166Z,0.00
2019-04-04T02:20:02.151Z,0.00
2019-04-04T02:21:02.164Z,0.00
2019-04-04T02:22:02.132Z,0.00
2019-04-04T02:23:02.139Z,0.00
2019-04-04T02:24:02.108Z,0.00
2019-04-04T02:25:03.160Z,0.00
2019-04-04T02:26:04.900Z,0.00
2019-04-04T02:27:02.075Z,0.00
2019-04-04T02:28:02.088Z,0.00
2019-04-04T02:29:02.098Z,0.00
2019-04-04T02:30:02.045Z,0.00
2019-04-04T02:31:02.029Z,0.00
2019-04-04T02:32:02.026Z,0.00
2019-04-04T02:33:02.094Z,0.00
2019-04-04T02:34:05.363Z,0.00
2019-04-04T02:35:01.987Z,0.00
2019-04-04T02:36:01.976Z,0.00
2019-04-04T02:37:01.985Z,0.00
2019-04-04T02:38:02.000Z,0.00
2019-04-04T02:39:01.956Z,0.00
2019-04-04T02:40:01.926Z,0.00
2019-04-04T02:41:01.944Z,0.00
2019-04-04T02:42:01.973Z,0.00
2019-04-04T02:43:01.923Z,0.00
2019-04-04T02:44:01.885Z,0.00
2019-04-04T02:45:05.133Z,0.00
2019-04-04T02:46:01.927Z,0.00
2019-04-04T02:47:01.853Z,0.00
2019-04-04T02:48:01.862Z,0.00
2019-04-04T02:49:01.828Z,0.00
2019-04-04T02:50:02.261Z,0.00
2019-04-04T02:51:01.815Z,0.00
2019-04-04T02:52:01.831Z,0.00
2019-04-04T02:53:01.785Z,0.00
2019-04-04T02:54:01.818Z,0.00
2019-04-04T02:55:01.772Z,0.00
2019-04-04T02:56:03.391Z,0.00
2019-04-04T02:57:01.744Z,0.00
2019-04-04T02:58:01.748Z,0.00
2019-04-04T02:59:01.721Z,0.00
2019-04-04T03:00:01.703Z,0.00
2019-04-04T03:01:01.712Z,0.00
2019-04-04T03:02:11.384Z,0.00
2019-04-04T03:03:09.582Z,0.00
2019-04-04T03:04:01.662Z,0.00
2019-04-04T03:05:01.649Z,0.00
2019-04-04T03:06:01.642Z,0.00
2019-04-04T03:07:01.638Z,0.00
2019-04-04T03:08:04.193Z,0.00
2019-04-04T03:09:01.628Z,0.00
2019-04-04T03:10:01.617Z,0.00
2019-04-04T03:11:01.587Z,0.00
2019-04-04T03:12:01.574Z,0.00
2019-04-04T03:13:01.587Z,0.00
2019-04-04T03:14:03.737Z,0.00
2019-04-04T03:15:01.551Z,0.00
2019-04-04T03:16:01.536Z,0.00
2019-04-04T03:17:01.520Z,0.00
2019-04-04T03:18:04.092Z,0.00
2019-04-04T03:19:01.511Z,0.00
2019-04-04T03:20:01.503Z,0.00
2019-04-04T03:21:01.510Z,0.00
2019-04-04T03:22:01.477Z,0.00
2019-04-04T03:23:01.580Z,0.00
2019-04-04T03:24:05.916Z,0.00
2019-04-04T03:25:01.432Z,0.00
2019-04-04T03:26:01.442Z,0.00
2019-04-04T03:27:01.439Z,0.00
2019-04-04T03:28:01.440Z,0.00
2019-04-04T03:29:04.355Z,0.00
2019-04-04T03:30:01.382Z,0.00
2019-04-04T03:31:03.230Z,0.00
2019-04-04T03:32:01.415Z,0.00
2019-04-04T03:33:01.371Z,0.00
2019-04-04T03:34:08.728Z,0.00
2019-04-04T03:35:02.380Z,0.00
2019-04-04T03:36:01.391Z,0.00
2019-04-04T03:37:01.306Z,0.00
2019-04-04T03:38:01.317Z,0.00
2019-04-04T03:39:01.318Z,0.00
2019-04-04T03:40:01.284Z,0.00
2019-04-04T03:41:01.279Z,0.00
2019-04-04T03:42:01.250Z,0.00
2019-04-04T03:43:01.267Z,0.00
2019-04-04T03:44:01.243Z,0.00
2019-04-04T03:45:01.222Z,0.00
2019-04-04T03:46:01.725Z,0.00
2019-04-04T03:47:01.197Z,0.00
2019-04-04T03:48:01.249Z,0.00
2019-04-04T03:49:01.177Z,0.00
2019-04-04T03:50:01.165Z,0.00
2019-04-04T03:51:08.705Z,0.00
2019-04-04T03:52:11.339Z,0.00
2019-04-04T03:53:09.978Z,0.00
2019-04-04T03:54:09.684Z,0.00
2019-04-04T03:55:01.137Z,0.00
2019-04-04T03:56:01.567Z,0.00
2019-04-04T03:57:01.094Z,0.00
2019-04-04T03:58:01.082Z,0.00
2019-04-04T03:59:01.096Z,0.00
2019-04-04T04:00:05.571Z,0.00
2019-04-04T04:01:02.056Z,0.00
2019-04-04T04:02:01.079Z,0.00
2019-04-04T04:03:01.052Z,0.00
2019-04-04T04:04:01.037Z,0.00
2019-04-04T04:05:02.154Z,0.00
2019-04-04T04:06:00.996Z,0.00
2019-04-04T04:07:00.981Z,0.00
2019-04-04T04:08:00.975Z,0.00
2019-04-04T04:09:01.025Z,0.00
2019-04-04T04:10:00.999Z,0.00
2019-04-04T04:11:04.845Z,0.00
2019-04-04T04:12:00.927Z,0.00
2019-04-04T04:13:00.919Z,0.00
2019-04-04T04:14:00.924Z,0.00
2019-04-04T04:15:01.026Z,0.00
2019-04-04T04:16:03.706Z,0.00
2019-04-04T04:17:01.044Z,0.00
2019-04-04T04:18:00.966Z,0.00
2019-04-04T04:22:25.159Z,0.00
2019-04-04T04:23:25.010Z,0.00
2019-04-04T04:24:26.718Z,0.00
2019-04-04T04:25:24.946Z,0.00
2019-04-04T04:26:24.937Z,0.00
2019-04-04T04:27:25.085Z,0.00
2019-04-04T04:28:33.605Z,0.00
2019-04-04T04:29:26.967Z,0.00
2019-04-04T04:30:24.930Z,0.00
2019-04-04T04:33:50.350Z,0.00
2019-04-04T04:34:58.860Z,0.00
2019-04-04T04:35:50.319Z,0.00
2019-04-04T04:36:57.834Z,0.00
2019-04-04T04:37:57.819Z,0.00
2019-04-04T04:39:00.384Z,4.00
2019-04-04T04:39:57.808Z,4.00
2019-04-04T04:40:58.805Z,4.00
2019-04-04T04:41:57.774Z,4.00
2019-04-04T04:43:00.726Z,0.00
2019-04-04T04:43:50.229Z,4.00
2019-04-04T04:44:50.215Z,4.00
2019-04-04T04:45:50.189Z,4.00
2019-04-04T04:46:51.188Z,4.00
2019-04-04T04:47:50.201Z,4.00
2019-04-04T04:48:50.215Z,4.00
2019-04-04T04:49:50.143Z,8.00
2019-04-04T04:50:50.156Z,8.00
2019-04-04T04:51:50.161Z,8.00
2019-04-04T04:52:50.120Z,8.00
2019-04-04T04:53:50.581Z,8.00
2019-04-04T04:54:50.095Z,8.00
2019-04-04T04:55:50.080Z,12.00
2019-04-04T04:56:50.193Z,12.00
2019-04-04T04:57:50.100Z,12.00
2019-04-04T04:58:50.064Z,12.00
2019-04-04T04:59:50.033Z,16.00
2019-04-04T05:00:50.024Z,16.00
2019-04-04T05:01:50.487Z,16.00
2019-04-04T05:02:51.020Z,16.00
2019-04-04T05:03:50.817Z,16.00
2019-04-04T05:04:49.995Z,16.00
2019-04-04T05:05:49.970Z,16.00
2019-04-04T05:06:49.955Z,16.00
2019-04-04T05:07:49.948Z,20.00
2019-04-04T05:08:49.949Z,20.00
2019-04-04T05:09:49.959Z,24.00
2019-04-04T05:10:49.920Z,24.00
2019-04-04T05:11:50.218Z,24.00
2019-04-04T05:12:57.461Z,28.00
2019-04-04T05:13:49.897Z,32.00
2019-04-04T05:15:00.992Z,32.00
2019-04-04T05:15:49.881Z,36.00
2019-04-04T05:16:49.870Z,36.00
2019-04-04T05:17:49.855Z,40.00
2019-04-04T05:18:49.840Z,40.00
2019-04-04T05:19:50.189Z,40.00
2019-04-04T05:20:49.812Z,48.00
2019-04-04T05:21:49.832Z,52.00
2019-04-04T05:22:49.816Z,60.00
2019-04-04T05:23:49.792Z,72.00
2019-04-04T05:25:06.791Z,76.00
2019-04-04T05:25:54.167Z,80.00
2019-04-04T05:26:49.738Z,84.00
2019-04-04T05:27:49.732Z,88.00
2019-04-04T05:28:49.742Z,92.00
2019-04-04T05:29:49.717Z,100.00
2019-04-04T05:30:49.708Z,108.00
2019-04-04T05:31:50.137Z,116.00
2019-04-04T05:32:51.776Z,116.00
2019-04-04T05:33:49.694Z,120.00
2019-04-04T05:34:49.654Z,120.00
2019-04-04T05:35:49.673Z,128.00
2019-04-04T05:36:49.646Z,128.00
2019-04-04T05:37:49.678Z,128.00
2019-04-04T05:38:49.630Z,128.00
2019-04-04T05:39:51.417Z,132.00
2019-04-04T05:40:49.622Z,140.00
2019-04-04T05:41:49.586Z,148.00
2019-04-04T05:42:49.596Z,148.00
2019-04-04T05:43:49.564Z,148.00
2019-04-04T05:44:49.600Z,148.00
2019-04-04T05:45:49.538Z,144.00
2019-04-04T05:46:52.009Z,148.00
2019-04-04T05:47:49.543Z,152.00
2019-04-04T05:48:49.575Z,168.00
2019-04-04T05:49:49.535Z,184.00
2019-04-04T05:50:49.499Z,204.00
2019-04-04T05:51:49.478Z,220.00
2019-04-04T05:52:49.545Z,232.00
2019-04-04T05:53:49.475Z,236.00
2019-04-04T05:54:49.488Z,232.00
2019-04-04T05:55:49.439Z,224.00
2019-04-04T05:56:49.719Z,224.00
2019-04-04T05:57:50.977Z,236.00
2019-04-04T05:58:51.068Z,252.00
2019-04-04T05:59:49.415Z,264.00
2019-04-04T06:00:49.413Z,272.00
2019-04-04T06:01:49.397Z,276.00
2019-04-04T06:02:49.361Z,284.00
2019-04-04T06:03:49.354Z,296.00
2019-04-04T06:04:50.977Z,308.00
2019-04-04T06:05:49.356Z,320.00
2019-04-04T06:06:49.327Z,316.00
2019-04-04T06:07:49.858Z,308.00
2019-04-04T06:08:49.318Z,296.00
2019-04-04T06:09:49.281Z,296.00
2019-04-04T06:10:50.074Z,300.00
2019-04-04T06:11:50.950Z,300.00
2019-04-04T06:12:49.246Z,312.00
2019-04-04T06:13:49.239Z,340.00
2019-04-04T06:14:49.225Z,360.00
2019-04-04T06:15:49.235Z,380.00
2019-04-04T06:16:58.045Z,400.00
2019-04-04T06:17:57.747Z,420.00
2019-04-04T06:18:57.746Z,460.00
2019-04-04T06:19:56.711Z,512.00
2019-04-04T06:20:58.029Z,592.00
2019-04-04T06:21:56.730Z,684.00
2019-04-04T06:22:50.071Z,784.00
2019-04-04T06:23:49.139Z,892.00
2019-04-04T06:24:52.008Z,996.00
2019-04-04T06:25:49.110Z,1088.00
2019-04-04T06:26:49.132Z,1148.00
2019-04-04T06:27:49.089Z,1176.00
2019-04-04T06:28:49.074Z,1180.00
2019-04-04T06:29:49.096Z,1148.00
2019-04-04T06:30:49.101Z,1100.00
2019-04-04T06:31:49.072Z,1036.00
2019-04-04T06:32:49.029Z,964.00
2019-04-04T06:33:49.021Z,888.00
2019-04-04T06:34:49.021Z,820.00
2019-04-04T06:35:49.046Z,756.00
2019-04-04T06:36:49.661Z,708.00
2019-04-04T06:37:51.034Z,684.00
2019-04-04T06:38:49.901Z,684.00
2019-04-04T06:39:48.957Z,684.00
2019-04-04T06:40:48.972Z,688.00
2019-04-04T06:41:48.962Z,696.00
2019-04-04T06:42:56.463Z,712.00
2019-04-04T06:43:56.489Z,736.00
2019-04-04T06:44:56.444Z,756.00
2019-04-04T06:45:56.434Z,768.00
2019-04-04T06:46:57.729Z,784.00
2019-04-04T06:47:58.231Z,760.00
2019-04-04T06:48:56.406Z,728.00
2019-04-04T06:51:05.086Z,720.00
2019-04-04T06:52:05.080Z,744.00
2019-04-04T06:53:05.036Z,760.00
2019-04-04T06:54:05.017Z,768.00
2019-04-04T06:55:05.008Z,756.00
2019-04-04T06:56:04.999Z,756.00
2019-04-04T06:57:05.010Z,764.00
2019-04-04T06:58:08.377Z,772.00
2019-04-04T06:59:04.971Z,768.00
2019-04-04T07:00:04.961Z,760.00
2019-04-04T07:01:04.945Z,748.00
2019-04-04T07:02:05.377Z,744.00
2019-04-04T07:03:04.948Z,748.00
2019-04-04T07:04:04.915Z,800.00
2019-04-04T07:05:06.289Z,844.00
2019-04-04T07:06:04.908Z,868.00
2019-04-04T07:07:04.876Z,880.00
2019-04-04T07:08:04.900Z,932.00
2019-04-04T07:09:04.889Z,1028.00
2019-04-04T07:10:04.857Z,1204.00
2019-04-04T07:11:15.460Z,1420.00
2019-04-04T07:12:06.771Z,1552.00
2019-04-04T07:13:20.476Z,1608.00
2019-04-04T07:14:05.874Z,1676.00
2019-04-04T07:15:04.793Z,1736.00
2019-04-04T07:16:07.728Z,1748.00
2019-04-04T07:17:08.404Z,1764.00
2019-04-04T07:18:04.781Z,1744.00
2019-04-04T07:19:07.758Z,1660.00
2019-04-04T07:20:04.750Z,1596.00
2019-04-04T07:21:04.729Z,1568.00
2019-04-04T07:22:04.723Z,1540.00
2019-04-04T07:23:04.730Z,1524.00
2019-04-04T07:24:04.741Z,1532.00
2019-04-04T07:25:06.545Z,1504.00
2019-04-04T07:26:04.683Z,1452.00
2019-04-04T07:27:04.675Z,1384.00
2019-04-04T07:28:04.655Z,1316.00
2019-04-04T07:29:04.731Z,1296.00
2019-04-04T07:30:04.657Z,1316.00
2019-04-04T07:31:04.634Z,1372.00
2019-04-04T07:32:04.620Z,1404.00
2019-04-04T07:33:04.597Z,1368.00
2019-04-04T07:34:04.649Z,1312.00
2019-04-04T07:35:04.583Z,1288.00
2019-04-04T07:36:04.576Z,1284.00
2019-04-04T07:37:04.565Z,1276.00
2019-04-04T07:38:04.560Z,1288.00
2019-04-04T07:39:04.576Z,1388.00
2019-04-04T07:40:04.666Z,1612.00
2019-04-04T07:41:07.876Z,1916.00
2019-04-04T07:42:04.531Z,2124.00
2019-04-04T07:43:04.499Z,2144.00
2019-04-04T07:44:04.514Z,2052.00
2019-04-04T07:45:04.498Z,1948.00
2019-04-04T07:46:15.627Z,1900.00
2019-04-04T07:47:05.450Z,1884.00
2019-04-04T07:48:04.442Z,1904.00
2019-04-04T07:49:04.467Z,1852.00
2019-04-04T07:50:04.441Z,1724.00
2019-04-04T07:51:04.445Z,1492.00
2019-04-04T07:52:04.396Z,1336.00
2019-04-04T07:53:05.259Z,1268.00
2019-04-04T07:54:05.233Z,1248.00
2019-04-04T07:55:04.367Z,1288.00
2019-04-04T07:56:04.358Z,1328.00
2019-04-04T07:57:04.350Z,1352.00
2019-04-04T07:58:04.358Z,1340.00
2019-04-04T07:59:04.417Z,1348.00
2019-04-04T08:00:04.321Z,1368.00
2019-04-04T08:01:04.304Z,1368.00
2019-04-04T08:02:04.301Z,1348.00
2019-04-04T08:03:04.281Z,1368.00
2019-04-04T08:04:06.538Z,1420.00
2019-04-04T08:05:04.266Z,1480.00
2019-04-04T08:06:04.268Z,1484.00
2019-04-04T08:07:04.256Z,1444.00
2019-04-04T08:08:04.224Z,1384.00
2019-04-04T08:09:04.264Z,1356.00
2019-04-04T08:10:04.213Z,1348.00
2019-04-04T08:11:04.205Z,1352.00
2019-04-04T08:12:04.215Z,1348.00
2019-04-04T08:13:04.175Z,1360.00
2019-04-04T08:14:04.197Z,1396.00
2019-04-04T08:15:04.184Z,1432.00
2019-04-04T08:16:04.138Z,1448.00
2019-04-04T08:17:04.129Z,1484.00
2019-04-04T08:18:04.125Z,1536.00
2019-04-04T08:19:04.136Z,1552.00
2019-04-04T08:20:04.147Z,1536.00
2019-04-04T08:21:05.727Z,1564.00
2019-04-04T08:22:04.135Z,1664.00
2019-04-04T08:23:04.062Z,1664.00
2019-04-04T08:24:04.087Z,1628.00
2019-04-04T08:25:04.064Z,1608.00
2019-04-04T08:26:11.584Z,1560.00
2019-04-04T08:27:12.627Z,1548.00
2019-04-04T08:28:11.552Z,1548.00
2019-04-04T08:29:12.906Z,1544.00
2019-04-04T08:30:12.544Z,1548.00
2019-04-04T08:31:11.509Z,1552.00
2019-04-04T08:32:11.513Z,1572.00
2019-04-04T08:33:11.499Z,1568.00
2019-04-04T08:34:03.945Z,1520.00
2019-04-04T08:35:03.954Z,1496.00
2019-04-04T08:36:06.385Z,1448.00
2019-04-04T08:37:03.926Z,1408.00
2019-04-04T08:38:03.902Z,1360.00
2019-04-04T08:39:03.892Z,1292.00
2019-04-04T08:40:03.907Z,1248.00
2019-04-04T08:41:03.872Z,1248.00
2019-04-04T08:42:03.859Z,1304.00
2019-04-04T08:43:03.867Z,1332.00
2019-04-04T08:44:03.933Z,1352.00
2019-04-04T08:45:03.844Z,1396.00
2019-04-04T08:46:03.822Z,1464.00
2019-04-04T08:47:03.824Z,1504.00
2019-04-04T08:48:03.795Z,1520.00
2019-04-04T08:49:03.807Z,1524.00
2019-04-04T08:50:03.786Z,1496.00
2019-04-04T08:51:03.767Z,1448.00
2019-04-04T08:52:15.872Z,1400.00
2019-04-04T08:53:04.750Z,1340.00
2019-04-04T08:54:03.740Z,1256.00
2019-04-04T08:55:03.734Z,1204.00
2019-04-04T08:56:03.747Z,1192.00
2019-04-04T09:06:43.582Z,1640.00
2019-04-04T09:07:43.636Z,1624.00
2019-04-04T09:08:43.500Z,1588.00
2019-04-04T09:09:43.619Z,1556.00
2019-04-04T09:10:43.517Z,1532.00
2019-04-04T09:11:43.468Z,1520.00
2019-04-04T09:12:43.456Z,1520.00
2019-04-04T09:13:43.447Z,1540.00
2019-04-04T09:14:43.436Z,1536.00
2019-04-04T09:15:43.439Z,1568.00
2019-04-04T09:16:43.441Z,1604.00
2019-04-04T09:17:43.424Z,1656.00
2019-04-04T09:18:43.401Z,1688.00
2019-04-04T09:19:43.385Z,1672.00
2019-04-04T09:20:43.432Z,1636.00
2019-04-04T09:21:43.388Z,1616.00
2019-04-04T09:22:43.397Z,1624.00
2019-04-04T09:23:43.342Z,1656.00
2019-04-04T09:24:43.352Z,1700.00
2019-04-04T09:26:04.623Z,1740.00
2019-04-04T09:26:44.327Z,1768.00
2019-04-04T09:27:43.525Z,1780.00
2019-04-04T09:28:43.324Z,1800.00
2019-04-04T09:29:43.280Z,1824.00
2019-04-04T09:30:43.268Z,1844.00
2019-04-04T09:31:43.274Z,1888.00
2019-04-04T09:32:43.247Z,1932.00
2019-04-04T09:33:43.243Z,1936.00
2019-04-04T09:34:43.228Z,1944.00
2019-04-04T09:35:43.292Z,1976.00
2019-04-04T09:36:43.229Z,2016.00
2019-04-04T09:37:43.187Z,2048.00
2019-04-04T09:38:43.192Z,2064.00
2019-04-04T09:39:43.167Z,2052.00
2019-04-04T09:40:43.182Z,2040.00
2019-04-04T09:41:43.194Z,2028.00
2019-04-04T09:42:43.132Z,2024.00
2019-04-04T09:43:43.147Z,2008.00
2019-04-04T09:44:43.113Z,2012.00
2019-04-04T09:45:43.106Z,2072.00
2019-04-04T09:46:43.098Z,2124.00
2019-04-04T09:47:43.118Z,2092.00
2019-04-04T09:48:43.074Z,2064.00
2019-04-04T09:49:43.062Z,1984.00
2019-04-04T09:50:43.065Z,1868.00
2019-04-04T09:51:43.042Z,1720.00
2019-04-04T09:52:43.054Z,1740.00
2019-04-04T09:53:52.927Z,1792.00
2019-04-04T09:54:44.010Z,1804.00
2019-04-04T09:55:42.991Z,1868.00
2019-04-04T09:56:43.000Z,1948.00
2019-04-04T09:57:42.998Z,1980.00
2019-04-04T09:58:42.962Z,2008.00
2019-04-04T09:59:42.945Z,1964.00
2019-04-04T10:00:42.937Z,1944.00
2019-04-04T10:01:42.946Z,2036.00
2019-04-04T10:02:42.934Z,2164.00
2019-04-04T10:03:42.907Z,2336.00
2019-04-04T10:04:42.906Z,2620.00
2019-04-04T10:05:42.902Z,3032.00
2019-04-04T10:06:42.896Z,3356.00
2019-04-04T10:07:42.891Z,3492.00
2019-04-04T10:08:42.855Z,3448.00
2019-04-04T10:09:42.852Z,3248.00
2019-04-04T10:10:42.866Z,3000.00
2019-04-04T10:11:42.856Z,2740.00
2019-04-04T10:12:42.821Z,2644.00
2019-04-04T10:13:42.824Z,2592.00
2019-04-04T10:14:42.788Z,2436.00
2019-04-04T10:15:42.773Z,2272.00
2019-04-04T10:16:42.765Z,2140.00
2019-04-04T10:17:42.752Z,2016.00
2019-04-04T10:18:42.810Z,1960.00
2019-04-04T10:19:50.264Z,1968.00
2019-04-04T10:20:42.744Z,1928.00
2019-04-04T10:21:42.703Z,1768.00
2019-04-04T10:22:42.734Z,1632.00
2019-04-04T10:23:42.681Z,1552.00
2019-04-04T10:24:42.670Z,1468.00
2019-04-04T10:25:42.666Z,1316.00
2019-04-04T10:26:42.652Z,1196.00
2019-04-04T10:27:42.647Z,1180.00
2019-04-04T10:28:42.650Z,1152.00
2019-04-04T10:29:42.614Z,1104.00
2019-04-04T10:30:42.611Z,1116.00
2019-04-04T10:31:42.614Z,1164.00
2019-04-04T10:32:42.637Z,1240.00
2019-04-04T10:33:42.598Z,1300.00
2019-04-04T10:34:42.561Z,1296.00
2019-04-04T10:35:42.551Z,1252.00
2019-04-04T10:36:42.544Z,1164.00
2019-04-04T10:37:42.535Z,1052.00
2019-04-04T10:38:42.551Z,984.00
2019-04-04T10:39:42.505Z,984.00
2019-04-04T10:40:42.500Z,1020.00
2019-04-04T10:41:42.487Z,1044.00
2019-04-04T10:42:42.481Z,1036.00
2019-04-04T10:43:42.486Z,996.00
2019-04-04T10:44:42.455Z,956.00
2019-04-04T10:45:42.473Z,916.00
2019-04-04T10:46:42.441Z,888.00
2019-04-04T10:47:42.425Z,876.00
2019-04-04T10:48:42.430Z,860.00
2019-04-04T10:49:42.399Z,824.00
2019-04-04T10:50:42.384Z,780.00
2019-04-04T10:51:42.395Z,756.00
2019-04-04T10:52:42.361Z,744.00
2019-04-04T10:53:42.373Z,768.00
2019-04-04T10:54:42.344Z,808.00
2019-04-04T10:55:42.369Z,844.00
2019-04-04T10:56:42.322Z,880.00
2019-04-04T10:57:42.308Z,916.00
2019-04-04T10:58:42.321Z,972.00
2019-04-04T10:59:42.294Z,1004.00
2019-04-04T11:00:42.313Z,984.00
2019-04-04T11:01:42.266Z,944.00
2019-04-04T11:02:42.330Z,900.00
2019-04-04T11:03:42.264Z,852.00
2019-04-04T11:04:42.236Z,820.00
2019-04-04T11:05:42.233Z,820.00
2019-04-04T11:06:42.223Z,836.00
2019-04-04T11:07:42.212Z,872.00
2019-04-04T11:08:42.189Z,924.00
2019-04-04T11:09:42.532Z,976.00
2019-04-04T11:10:42.169Z,1012.00
2019-04-04T11:11:42.157Z,1028.00
2019-04-04T11:12:42.147Z,1076.00
2019-04-04T11:13:42.143Z,1172.00
2019-04-04T11:14:42.147Z,1284.00
2019-04-04T11:15:42.119Z,1340.00
2019-04-04T11:16:42.103Z,1320.00
2019-04-04T11:17:42.125Z,1292.00
2019-04-04T11:18:42.082Z,1252.00
2019-04-04T11:19:43.477Z,1236.00
2019-04-04T11:20:42.073Z,1308.00
2019-04-04T11:21:42.052Z,1396.00
2019-04-04T11:22:42.041Z,1536.00
2019-04-04T11:23:42.046Z,1676.00
2019-04-04T11:24:42.093Z,1796.00
2019-04-04T11:25:49.534Z,1892.00
2019-04-04T11:26:41.991Z,1996.00
2019-04-04T11:27:49.517Z,2104.00
2019-04-04T11:28:49.517Z,2180.00
2019-04-04T11:29:41.979Z,2184.00
2019-04-04T11:30:48.975Z,2144.00
2019-04-04T11:31:41.936Z,2024.00
2019-04-04T11:32:41.924Z,1924.00
2019-04-04T11:33:41.923Z,1940.00
2019-04-04T11:34:52.557Z,2064.00
2019-04-04T11:35:42.893Z,2224.00
2019-04-04T11:36:41.882Z,2340.00
2019-04-04T11:37:41.872Z,2444.00
2019-04-04T11:38:44.089Z,2584.00
2019-04-04T11:39:53.706Z,2720.00
2019-04-04T11:40:42.854Z,2724.00
2019-04-04T11:41:41.873Z,2628.00
2019-04-04T11:42:41.817Z,2464.00
2019-04-04T11:43:41.810Z,2260.00
2019-04-04T11:44:41.819Z,2084.00
2019-04-04T11:45:41.785Z,1972.00
2019-04-04T11:46:41.805Z,1928.00
2019-04-04T11:47:41.765Z,1912.00
2019-04-04T11:48:41.756Z,1884.00
2019-04-04T11:49:41.770Z,1884.00
2019-04-04T11:50:41.731Z,1916.00
2019-04-04T11:51:41.726Z,1940.00
2019-04-04T11:52:41.720Z,1940.00
2019-04-04T11:53:41.701Z,1888.00
2019-04-04T11:54:41.697Z,1844.00
2019-04-04T11:55:41.694Z,1848.00
2019-04-04T11:56:41.670Z,1828.00
2019-04-04T11:57:41.667Z,1692.00
2019-04-04T11:58:41.643Z,1568.00
2019-04-04T11:59:41.631Z,1536.00
2019-04-04T12:00:41.646Z,1488.00
2019-04-04T12:01:41.622Z,1412.00
2019-04-04T12:02:41.604Z,1396.00
2019-04-04T12:03:41.598Z,1468.00
2019-04-04T12:04:41.576Z,1528.00
2019-04-04T12:05:41.586Z,1548.00
2019-04-04T12:06:41.563Z,1564.00
2019-04-04T12:07:41.559Z,1552.00
2019-04-04T12:08:41.533Z,1504.00
2019-04-04T12:09:41.528Z,1532.00
2019-04-04T12:10:41.542Z,1640.00
2019-04-04T12:11:41.501Z,1708.00
2019-04-04T12:12:41.489Z,1712.00
2019-04-04T12:13:41.480Z,1680.00
2019-04-04T12:14:41.467Z,1648.00
2019-04-04T12:15:41.487Z,1628.00
2019-04-04T12:16:41.479Z,1644.00
2019-04-04T12:17:41.464Z,1680.00
2019-04-04T12:18:41.429Z,1648.00
2019-04-04T12:19:41.416Z,1544.00
2019-04-04T12:20:43.314Z,1464.00
2019-04-04T12:21:41.391Z,1416.00
2019-04-04T12:22:41.385Z,1424.00
2019-04-04T12:23:41.370Z,1480.00
2019-04-04T12:24:41.364Z,1532.00
2019-04-04T12:25:41.347Z,1552.00
2019-04-04T12:26:41.353Z,1568.00
2019-04-04T12:27:41.324Z,1568.00
2019-04-04T12:28:41.340Z,1548.00
2019-04-04T12:29:41.303Z,1556.00
2019-04-04T12:30:41.302Z,1528.00
2019-04-04T12:31:41.299Z,1452.00
2019-04-04T12:32:41.271Z,1368.00
2019-04-04T12:33:41.267Z,1304.00
2019-04-04T12:34:41.247Z,1320.00
2019-04-04T12:35:41.241Z,1428.00
2019-04-04T12:36:41.253Z,1500.00
2019-04-04T12:37:41.218Z,1524.00
2019-04-04T12:38:41.209Z,1532.00
2019-04-04T12:39:41.198Z,1528.00
2019-04-04T12:40:41.183Z,1524.00
2019-04-04T12:41:41.196Z,1568.00
2019-04-04T12:42:41.175Z,1676.00
2019-04-04T12:43:41.158Z,1804.00
2019-04-04T12:44:41.139Z,1860.00
2019-04-04T12:45:41.128Z,1852.00
2019-04-04T12:46:42.518Z,1780.00
2019-04-04T12:47:41.125Z,1768.00
2019-04-04T12:48:41.094Z,1772.00
2019-04-04T12:49:41.107Z,1700.00
2019-04-04T12:50:41.075Z,1648.00
2019-04-04T12:51:41.162Z,1684.00
2019-04-04T12:52:41.061Z,1756.00
2019-04-04T12:53:41.046Z,1820.00